createdAt,value
2022-11-20T00:00:31.140Z,6.90
2022-11-20T00:02:57.752Z,6.57
2022-11-20T00:05:24.412Z,7.77
2022-11-20T00:07:51.062Z,9.30
2022-11-20T00:10:17.922Z,7.13
2022-11-20T00:12:44.611Z,7.63
2022-11-20T00:15:11.305Z,5.77
2022-11-20T00:17:37.958Z,7.57
2022-11-20T00:20:05.549Z,7.17
2022-11-20T00:22:32.180Z,9.60
2022-11-20T00:24:58.830Z,7.17
2022-11-20T00:27:25.480Z,7.50
2022-11-20T00:29:52.210Z,5.20
2022-11-20T00:32:18.875Z,7.47
2022-11-20T00:34:45.580Z,10.23
2022-11-20T00:37:12.270Z,8.50
2022-11-20T00:39:38.935Z,6.83
2022-11-20T00:42:05.652Z,9.73
2022-11-20T00:44:32.500Z,8.07
2022-11-20T00:46:59.155Z,7.57
2022-11-20T00:49:25.864Z,6.40
2022-11-20T00:51:52.497Z,8.37
2022-11-20T00:54:19.165Z,9.17
2022-11-20T00:56:45.855Z,9.03
2022-11-20T00:59:12.611Z,9.10
2022-11-20T01:01:39.572Z,11.70
2022-11-20T01:04:06.476Z,10.63
2022-11-20T01:06:35.466Z,11.80
2022-11-20T01:09:08.322Z,12.40
2022-11-20T01:11:38.436Z,13.13
2022-11-20T01:14:07.274Z,12.07
2022-11-20T01:16:37.036Z,12.77
2022-11-20T01:19:06.414Z,8.33
2022-11-20T01:21:38.898Z,10.17
2022-11-20T01:24:08.700Z,9.13
2022-11-20T01:26:39.722Z,10.27
2022-11-20T01:29:07.560Z,9.80
2022-11-20T01:31:38.461Z,10.70
2022-11-20T01:34:07.505Z,10.20
2022-11-20T01:36:36.460Z,10.87
2022-11-20T01:39:07.291Z,11.80
2022-11-20T01:41:53.894Z,11.03
2022-11-20T01:44:23.408Z,13.17
2022-11-20T01:46:59.283Z,11.10
2022-11-20T01:49:38.263Z,8.90
2022-11-20T01:52:10.735Z,10.07
2022-11-20T01:54:42.078Z,9.23
2022-11-20T01:57:10.808Z,10.47
2022-11-20T01:59:42.878Z,9.17
2022-11-20T02:02:09.770Z,9.80
2022-11-20T02:04:36.876Z,10.80
2022-11-20T02:07:06.225Z,10.10
2022-11-20T02:09:33.018Z,8.43
2022-11-20T02:12:00.460Z,7.17
2022-11-20T02:14:27.531Z,9.00
2022-11-20T02:16:55.581Z,10.60
2022-11-20T02:19:30.944Z,7.73
2022-11-20T02:21:57.536Z,7.53
2022-11-20T02:24:24.501Z,8.70
2022-11-20T02:27:13.102Z,7.73
2022-11-20T02:29:45.509Z,8.07
2022-11-20T02:32:34.095Z,12.50
2022-11-20T02:35:19.878Z,11.03
2022-11-20T02:37:49.200Z,12.10
2022-11-20T02:40:15.943Z,8.97
2022-11-20T02:42:42.584Z,10.87
2022-11-20T02:45:10.137Z,10.07
2022-11-20T02:47:37.041Z,9.73
2022-11-20T02:50:04.800Z,7.57
2022-11-20T02:52:31.745Z,7.80
2022-11-20T02:54:58.416Z,7.80
2022-11-20T02:57:25.047Z,10.33
2022-11-20T02:59:51.721Z,9.93
2022-11-20T03:02:18.441Z,11.37
2022-11-20T03:04:45.109Z,9.83
2022-11-20T03:07:11.878Z,10.93
2022-11-20T03:09:38.636Z,11.03
2022-11-20T03:12:05.946Z,10.80
2022-11-20T03:14:32.742Z,10.77
2022-11-20T03:16:59.478Z,11.27
2022-11-20T03:19:26.179Z,12.70
2022-11-20T03:21:52.815Z,12.87
2022-11-20T03:24:19.471Z,10.30
2022-11-20T03:26:46.117Z,8.60
2022-11-20T03:29:12.768Z,10.40
2022-11-20T03:31:41.432Z,9.77
2022-11-20T03:34:10.039Z,8.63
2022-11-20T03:36:43.047Z,7.27
2022-11-20T03:39:09.840Z,9.80
2022-11-20T03:41:38.967Z,7.70
2022-11-20T03:44:07.352Z,8.40
2022-11-20T03:46:34.452Z,9.67
2022-11-20T03:49:01.654Z,11.30
2022-11-20T03:51:30.648Z,7.53
2022-11-20T03:53:59.799Z,9.33
2022-11-20T03:56:30.100Z,7.00
2022-11-20T03:58:57.182Z,8.57
2022-11-20T04:01:26.889Z,6.80
2022-11-20T04:03:55.593Z,8.50
2022-11-20T04:06:25.702Z,8.00
2022-11-20T04:08:54.500Z,9.00
2022-11-20T04:11:29.733Z,8.67
2022-11-20T04:13:59.084Z,10.33
2022-11-20T04:16:27.128Z,10.70
2022-11-20T04:18:58.678Z,8.77
2022-11-20T04:21:27.167Z,10.90
2022-11-20T04:23:54.750Z,9.97
2022-11-20T04:26:23.136Z,8.47
2022-11-20T04:28:50.181Z,10.83
2022-11-20T04:31:20.265Z,10.33
2022-11-20T04:33:47.102Z,9.27
2022-11-20T04:36:16.430Z,9.43
2022-11-20T04:38:43.547Z,11.23
2022-11-20T04:41:17.123Z,9.20
2022-11-20T04:43:49.468Z,7.13
2022-11-20T04:46:20.008Z,8.13
2022-11-20T04:48:48.051Z,12.47
2022-11-20T04:51:14.801Z,7.90
2022-11-20T04:53:41.557Z,8.70
2022-11-20T04:56:11.240Z,10.57
2022-11-20T04:58:38.823Z,10.27
2022-11-20T05:01:12.919Z,9.77
2022-11-20T05:03:44.124Z,10.40
2022-11-20T05:06:13.651Z,9.47
2022-11-20T05:08:40.891Z,8.50
2022-11-20T05:11:10.627Z,11.67
2022-11-20T05:13:38.120Z,9.17
2022-11-20T05:16:07.406Z,9.27
2022-11-20T05:18:35.521Z,8.57
2022-11-20T05:21:02.211Z,8.60
2022-11-20T05:23:30.932Z,8.70
2022-11-20T05:25:59.512Z,10.67
2022-11-20T05:28:27.528Z,8.90
2022-11-20T05:30:54.457Z,10.90
2022-11-20T05:33:21.466Z,9.50
2022-11-20T05:35:49.462Z,8.53
2022-11-20T05:38:16.441Z,9.37
2022-11-20T05:40:43.115Z,9.47
2022-11-20T05:43:09.924Z,6.73
2022-11-20T05:45:36.670Z,10.70
2022-11-20T05:48:03.614Z,8.53
2022-11-20T05:50:30.442Z,8.60
2022-11-20T05:53:00.277Z,9.17
2022-11-20T05:55:27.975Z,8.10
2022-11-20T05:57:55.813Z,9.60
2022-11-20T06:00:23.002Z,10.63
2022-11-20T06:02:49.938Z,8.77
2022-11-20T06:05:16.869Z,6.77
2022-11-20T06:07:43.944Z,6.80
2022-11-20T06:10:10.893Z,6.07
2022-11-20T06:12:37.533Z,6.90
2022-11-20T06:15:05.775Z,8.37
2022-11-20T06:17:32.456Z,7.03
2022-11-20T06:19:59.110Z,7.53
2022-11-20T06:22:25.774Z,7.03
2022-11-20T06:24:52.435Z,7.93
2022-11-20T06:27:19.113Z,7.67
2022-11-20T06:29:45.846Z,5.43
2022-11-20T06:32:12.495Z,6.97
2022-11-20T06:34:39.180Z,8.87
2022-11-20T06:37:06.735Z,7.47
2022-11-20T06:39:33.417Z,6.70
2022-11-20T06:42:00.049Z,5.90
2022-11-20T06:44:27.075Z,6.03
2022-11-20T06:46:53.726Z,4.93
2022-11-20T06:49:20.919Z,6.50
2022-11-20T06:51:47.926Z,8.00
2022-11-20T06:54:14.593Z,6.43
2022-11-20T06:56:41.227Z,5.67
2022-11-20T06:59:08.751Z,5.47
2022-11-20T07:01:35.966Z,5.30
2022-11-20T07:04:03.893Z,4.43
2022-11-20T07:06:30.746Z,4.77
2022-11-20T07:08:57.979Z,5.37
2022-11-20T07:11:24.721Z,3.67
2022-11-20T07:13:51.832Z,4.97
2022-11-20T07:16:18.676Z,3.93
2022-11-20T07:18:50.114Z,3.50
2022-11-20T07:21:17.579Z,4.70
2022-11-20T07:23:44.231Z,3.57
2022-11-20T07:26:11.862Z,4.60
2022-11-20T07:28:39.150Z,4.30
2022-11-20T07:31:07.615Z,5.67
2022-11-20T07:33:34.431Z,4.60
2022-11-20T07:36:01.194Z,4.70
2022-11-20T07:38:28.336Z,4.73
2022-11-20T07:40:56.776Z,4.70
2022-11-20T07:43:23.439Z,6.97
2022-11-20T07:45:50.103Z,5.87
2022-11-20T07:48:16.778Z,9.50
2022-11-20T07:50:43.510Z,6.30
2022-11-20T07:53:10.180Z,7.10
2022-11-20T07:55:37.011Z,8.73
2022-11-20T07:58:03.709Z,5.13
2022-11-20T08:00:30.474Z,4.50
2022-11-20T08:02:57.249Z,6.10
2022-11-20T08:05:24.189Z,4.93
2022-11-20T08:07:50.964Z,4.93
2022-11-20T08:10:18.463Z,4.83
2022-11-20T08:13:10.961Z,5.37
2022-11-20T08:15:39.430Z,10.13
2022-11-20T08:18:31.669Z,7.10
2022-11-20T08:21:03.865Z,8.20
2022-11-20T08:23:31.147Z,8.10
2022-11-20T08:25:57.808Z,6.83
2022-11-20T08:28:24.540Z,9.17
2022-11-20T08:30:51.589Z,9.07
2022-11-20T08:33:19.178Z,7.03
2022-11-20T08:35:46.347Z,7.47
2022-11-20T08:38:13.201Z,7.93
2022-11-20T08:40:39.901Z,8.90
2022-11-20T08:43:06.900Z,7.50
2022-11-20T08:45:35.193Z,6.90
2022-11-20T08:48:04.074Z,6.97
2022-11-20T08:50:32.995Z,7.87
2022-11-20T08:53:06.298Z,7.27
2022-11-20T08:55:33.369Z,6.73
2022-11-20T08:58:04.586Z,7.97
2022-11-20T09:00:31.291Z,8.13
2022-11-20T09:02:59.437Z,8.80
2022-11-20T09:05:26.158Z,8.70
2022-11-20T09:07:52.790Z,7.57
2022-11-20T09:10:24.499Z,8.17
2022-11-20T09:12:53.092Z,8.80
2022-11-20T09:15:20.454Z,9.33
2022-11-20T09:17:59.809Z,7.77
2022-11-20T09:20:29.533Z,8.27
2022-11-20T09:22:56.940Z,8.20
2022-11-20T09:25:23.997Z,7.93
2022-11-20T09:27:56.874Z,9.07
2022-11-20T09:30:23.592Z,8.47
2022-11-20T09:32:50.234Z,9.33
2022-11-20T09:35:16.987Z,8.10
2022-11-20T09:37:43.631Z,9.80
2022-11-20T09:40:29.269Z,7.10
2022-11-20T09:43:16.388Z,8.67
2022-11-20T09:46:09.796Z,9.60
2022-11-20T09:48:58.016Z,7.80
2022-11-20T09:51:42.664Z,5.80
2022-11-20T09:54:32.186Z,7.50
2022-11-20T09:57:06.136Z,9.03
2022-11-20T09:59:54.872Z,10.73
2022-11-20T10:02:25.044Z,6.70
2022-11-20T10:05:04.119Z,7.33
2022-11-20T10:07:44.465Z,6.30
2022-11-20T10:10:22.536Z,7.57
2022-11-20T10:12:52.252Z,5.63
2022-11-20T10:15:27.963Z,4.43
2022-11-20T10:18:26.573Z,5.97
2022-11-20T10:21:02.408Z,3.20
2022-11-20T10:23:50.826Z,5.20
2022-11-20T10:26:33.572Z,3.17
2022-11-20T10:29:16.484Z,3.70
2022-11-20T10:31:48.668Z,4.00
2022-11-20T10:34:32.666Z,2.77
2022-11-20T10:37:10.793Z,4.10
2022-11-20T10:40:15.787Z,4.37
2022-11-20T10:42:56.873Z,3.40
2022-11-20T10:45:26.498Z,3.53
2022-11-20T10:47:57.555Z,2.27
2022-11-20T10:50:24.435Z,4.73
2022-11-20T10:53:03.255Z,5.93
2022-11-20T10:55:49.935Z,4.13
2022-11-20T10:58:47.285Z,3.50
2022-11-20T11:01:19.897Z,3.90
2022-11-20T11:03:47.307Z,9.83
2022-11-20T11:06:44.981Z,3.13
2022-11-20T11:09:21.680Z,5.57
2022-11-20T11:11:48.789Z,3.67
2022-11-20T11:14:16.743Z,4.83
2022-11-20T11:16:55.235Z,5.17
2022-11-20T11:19:22.386Z,6.37
2022-11-20T11:21:55.584Z,6.10
2022-11-20T11:24:41.195Z,5.73
2022-11-20T11:27:17.590Z,3.10
2022-11-20T11:29:45.052Z,3.33
2022-11-20T11:32:22.609Z,3.47
2022-11-20T11:35:07.521Z,8.70
2022-11-20T11:37:39.552Z,3.30
2022-11-20T11:40:24.790Z,4.37
2022-11-20T11:42:58.864Z,6.20
2022-11-20T11:45:26.460Z,4.30
2022-11-20T11:47:55.420Z,4.77
2022-11-20T11:50:27.561Z,4.03
2022-11-20T11:53:00.307Z,4.73
2022-11-20T11:55:55.076Z,3.20
2022-11-20T11:58:46.705Z,3.57
2022-11-20T12:01:31.481Z,4.40
2022-11-20T12:04:37.273Z,4.57
2022-11-20T12:10:23.553Z,6.17
2022-11-20T12:13:25.836Z,6.90
2022-11-20T12:15:52.758Z,5.27
2022-11-20T12:18:21.627Z,5.27
2022-11-20T12:21:13.080Z,6.67
2022-11-20T12:24:04.129Z,5.23
2022-11-20T12:26:58.769Z,7.80
2022-11-20T12:30:23.236Z,5.93
2022-11-20T12:33:21.790Z,4.20
2022-11-20T12:35:51.058Z,7.30
2022-11-20T12:38:48.535Z,4.47
2022-11-20T12:41:49.002Z,4.67
2022-11-20T12:45:11.147Z,6.17
2022-11-20T12:48:03.963Z,5.60
2022-11-20T12:51:00.275Z,4.30
2022-11-20T12:53:45.550Z,6.80
2022-11-20T12:56:15.238Z,5.63
2022-11-20T12:58:50.685Z,6.30
2022-11-20T13:01:48.535Z,6.60
2022-11-20T13:04:39.777Z,3.60
2022-11-20T13:07:10.911Z,4.73
2022-11-20T13:09:44.730Z,6.17
2022-11-20T13:12:41.016Z,4.50
2022-11-20T13:15:32.975Z,2.47
2022-11-20T13:18:02.375Z,9.33
2022-11-20T13:20:31.847Z,7.07
2022-11-20T13:22:59.656Z,8.07
2022-11-20T13:25:33.517Z,3.53
2022-11-20T13:28:04.980Z,4.90
2022-11-20T13:30:32.432Z,2.33
2022-11-20T13:33:07.523Z,2.37
2022-11-20T13:35:37.736Z,3.10
2022-11-20T13:38:11.465Z,4.47
2022-11-20T13:40:50.902Z,4.00
2022-11-20T13:43:40.628Z,2.17
2022-11-20T13:46:09.836Z,2.33
2022-11-20T13:48:42.379Z,2.60
2022-11-20T13:51:30.918Z,3.27
2022-11-20T13:54:25.607Z,3.10
2022-11-20T13:57:30.243Z,2.30
2022-11-20T14:00:18.884Z,4.23
2022-11-20T14:03:14.057Z,7.20
2022-11-20T14:05:49.864Z,4.90
2022-11-20T14:08:27.602Z,7.37
2022-11-20T14:11:20.543Z,3.30
2022-11-20T14:14:01.552Z,5.77
2022-11-20T14:16:30.860Z,6.60
2022-11-20T14:19:15.782Z,4.87
2022-11-20T14:21:42.440Z,6.23
2022-11-20T14:24:13.057Z,6.07
2022-11-20T14:26:44.812Z,4.10
2022-11-20T14:29:17.205Z,2.97
2022-11-20T14:31:49.911Z,3.57
2022-11-20T14:34:28.371Z,3.30
2022-11-20T14:36:59.923Z,5.20
2022-11-20T14:39:37.252Z,1.70
2022-11-20T14:42:18.143Z,2.33
2022-11-20T14:44:45.433Z,2.60
2022-11-20T14:47:14.493Z,3.40
2022-11-20T14:49:42.438Z,4.70
2022-11-20T14:52:23.725Z,5.80
2022-11-20T14:54:53.546Z,2.40
2022-11-20T14:57:23.586Z,5.67
2022-11-20T14:59:50.258Z,11.33
2022-11-20T15:02:17.540Z,7.30
2022-11-20T15:04:51.351Z,6.57
2022-11-20T15:07:29.813Z,11.17
2022-11-20T15:10:10.232Z,6.90
2022-11-20T15:12:46.882Z,5.37
2022-11-20T15:15:17.856Z,3.47
2022-11-20T15:17:44.562Z,5.63
2022-11-20T15:20:15.591Z,7.70
2022-11-20T15:22:42.728Z,4.57
2022-11-20T15:25:17.815Z,3.57
2022-11-20T15:27:45.476Z,4.27
2022-11-20T15:30:22.095Z,4.40
2022-11-20T15:32:49.125Z,3.57
2022-11-20T15:35:16.580Z,3.50
2022-11-20T15:37:43.557Z,4.07
2022-11-20T15:40:11.031Z,4.17
2022-11-20T15:42:37.815Z,4.80
2022-11-20T15:45:04.844Z,7.17
2022-11-20T15:47:35.126Z,4.10
2022-11-20T15:50:02.081Z,6.67
2022-11-20T15:52:40.203Z,8.90
2022-11-20T15:55:11.087Z,10.70
2022-11-20T15:57:37.724Z,8.23
2022-11-20T16:00:04.845Z,4.90
2022-11-20T16:02:37.505Z,6.60
2022-11-20T16:05:04.856Z,4.10
2022-11-20T16:07:31.631Z,5.07
2022-11-20T16:09:58.453Z,3.10
2022-11-20T16:13:03.711Z,3.53
2022-11-20T16:15:45.773Z,7.03
2022-11-20T16:18:20.119Z,4.83
2022-11-20T16:20:50.053Z,2.60
2022-11-20T16:23:16.865Z,3.73
2022-11-20T16:25:44.417Z,5.07
2022-11-20T16:28:17.412Z,3.67
2022-11-20T16:30:45.850Z,4.77
2022-11-20T16:33:14.353Z,3.93
2022-11-20T16:35:41.186Z,6.53
2022-11-20T16:38:08.116Z,4.57
2022-11-20T16:40:35.068Z,2.70
2022-11-20T16:43:10.796Z,2.13
2022-11-20T16:45:45.131Z,3.30
2022-11-20T16:48:16.763Z,4.93
2022-11-20T16:50:51.984Z,5.60
2022-11-20T16:53:20.459Z,5.63
2022-11-20T16:55:47.638Z,5.73
2022-11-20T16:58:15.452Z,5.03
2022-11-20T17:00:45.715Z,3.23
2022-11-20T17:03:17.925Z,6.40
2022-11-20T17:05:44.637Z,3.47
2022-11-20T17:08:11.284Z,4.90
2022-11-20T17:10:37.964Z,2.33
2022-11-20T17:13:04.603Z,3.20
2022-11-20T17:15:31.591Z,27.57
2022-11-20T17:17:58.243Z,3.27
2022-11-20T17:20:24.983Z,5.47
2022-11-20T17:22:51.736Z,3.47
2022-11-20T17:25:18.431Z,4.03
2022-11-20T17:27:45.082Z,2.23
2022-11-20T17:30:11.969Z,5.63
2022-11-20T17:32:39.710Z,3.73
2022-11-20T17:35:06.687Z,5.13
2022-11-20T17:37:33.366Z,4.37
2022-11-20T17:40:00.000Z,6.77
2022-11-20T17:42:26.627Z,3.47
2022-11-20T17:44:53.376Z,3.73
2022-11-20T17:47:20.082Z,4.07
2022-11-20T17:49:46.732Z,6.10
2022-11-20T17:52:13.371Z,3.33
2022-11-20T17:54:40.031Z,3.27
2022-11-20T17:57:25.478Z,3.00
2022-11-20T17:59:52.190Z,2.33
2022-11-20T18:02:18.881Z,3.73
2022-11-20T18:04:45.589Z,4.53
2022-11-20T18:07:12.424Z,6.10
2022-11-20T18:09:39.096Z,1.60
2022-11-20T18:12:06.064Z,4.17
2022-11-20T18:14:33.008Z,2.53
2022-11-20T18:17:13.734Z,3.87
2022-11-20T18:19:55.555Z,2.97
2022-11-20T18:22:29.743Z,3.20
2022-11-20T18:24:56.394Z,3.40
2022-11-20T18:27:23.835Z,2.30
2022-11-20T18:29:53.539Z,3.93
2022-11-20T18:32:21.655Z,2.70
2022-11-20T18:34:48.426Z,2.47
2022-11-20T18:37:16.191Z,1.60
2022-11-20T18:39:43.575Z,2.33
2022-11-20T18:42:32.930Z,1.10
2022-11-20T18:45:00.267Z,1.93
2022-11-20T18:47:30.478Z,2.47
2022-11-20T18:49:59.561Z,1.30
2022-11-20T18:52:45.292Z,2.13
2022-11-20T18:55:12.612Z,1.50
2022-11-20T18:57:39.382Z,1.40
2022-11-20T19:00:09.587Z,1.97
2022-11-20T19:02:41.599Z,2.60
2022-11-20T19:05:13.394Z,2.13
2022-11-20T19:07:40.343Z,1.77
2022-11-20T19:10:07.482Z,1.67
2022-11-20T19:12:34.138Z,1.57
2022-11-20T19:15:00.982Z,1.57
2022-11-20T19:17:27.663Z,3.53
2022-11-20T19:19:55.135Z,4.63
2022-11-20T19:22:22.166Z,2.60
2022-11-20T19:24:49.354Z,4.00
2022-11-20T19:27:16.043Z,3.90
2022-11-20T19:29:42.742Z,2.83
2022-11-20T19:32:09.393Z,1.60
2022-11-20T19:34:36.068Z,2.37
2022-11-20T19:37:02.807Z,3.93
2022-11-20T19:39:29.507Z,1.70
2022-11-20T19:41:56.195Z,1.97
2022-11-20T19:44:22.952Z,3.07
2022-11-20T19:46:50.870Z,3.30
2022-11-20T19:49:17.566Z,2.27
2022-11-20T19:51:47.025Z,1.53
2022-11-20T19:54:14.482Z,2.17
2022-11-20T19:56:41.195Z,3.93
2022-11-20T19:59:07.909Z,2.93
2022-11-20T20:01:35.260Z,3.40
2022-11-20T20:04:03.557Z,2.87
2022-11-20T20:06:31.283Z,2.37
2022-11-20T20:08:59.764Z,2.43
2022-11-20T20:11:28.094Z,1.87
2022-11-20T20:13:55.957Z,3.63
2022-11-20T20:16:24.496Z,5.27
2022-11-20T20:18:58.965Z,3.23
2022-11-20T20:21:25.685Z,5.20
2022-11-20T20:23:54.739Z,2.80
2022-11-20T20:26:23.085Z,2.73
2022-11-20T20:28:50.483Z,3.07
2022-11-20T20:31:21.501Z,1.70
2022-11-20T20:33:48.217Z,2.60
2022-11-20T20:36:16.474Z,2.83
2022-11-20T20:38:44.210Z,2.03
2022-11-20T20:41:10.881Z,1.97
2022-11-20T20:43:56.774Z,3.17
2022-11-20T20:46:24.149Z,2.40
2022-11-20T20:48:54.366Z,2.33
2022-11-20T20:51:22.202Z,1.67
2022-11-20T20:53:49.280Z,1.47
2022-11-20T20:56:16.292Z,2.53
2022-11-20T20:58:43.111Z,3.37
2022-11-20T21:01:12.550Z,3.30
2022-11-20T21:03:39.314Z,4.87
2022-11-20T21:06:07.702Z,2.57
2022-11-20T21:08:36.082Z,5.13
2022-11-20T21:11:13.997Z,6.87
2022-11-20T21:13:42.828Z,2.77
2022-11-20T21:16:10.813Z,6.13
2022-11-20T21:18:37.851Z,4.77
2022-11-20T21:21:27.800Z,2.90
2022-11-20T21:23:54.511Z,4.00
2022-11-20T21:26:21.985Z,5.23
2022-11-20T21:28:49.785Z,7.97
2022-11-20T21:31:18.957Z,6.17
2022-11-20T21:33:47.514Z,6.43
2022-11-20T21:36:20.246Z,3.37
2022-11-20T21:38:48.204Z,4.77
2022-11-20T21:41:15.692Z,4.80
2022-11-20T21:43:44.137Z,7.47
2022-11-20T21:46:13.447Z,3.97
2022-11-20T21:48:41.519Z,8.50
2022-11-20T21:51:10.921Z,8.20
2022-11-20T21:53:38.151Z,5.80
2022-11-20T21:56:06.834Z,4.70
2022-11-20T21:58:35.608Z,3.00
2022-11-20T22:01:26.574Z,6.87
2022-11-20T22:03:57.124Z,4.33
2022-11-20T22:06:26.963Z,5.63
2022-11-20T22:08:53.621Z,4.20
2022-11-20T22:11:22.029Z,7.23
2022-11-20T22:14:08.204Z,7.60
2022-11-20T22:16:36.184Z,6.63
2022-11-20T22:19:03.444Z,6.70
2022-11-20T22:21:31.276Z,6.00
2022-11-20T22:23:58.349Z,5.87
2022-11-20T22:26:30.239Z,6.47
2022-11-20T22:28:58.672Z,7.50
2022-11-20T22:31:27.953Z,4.63
2022-11-20T22:33:55.262Z,5.37
2022-11-20T22:36:29.938Z,7.47
2022-11-20T22:38:57.475Z,6.70
2022-11-20T22:41:27.220Z,6.37
2022-11-20T22:44:04.963Z,7.63
2022-11-20T22:46:35.387Z,9.77
2022-11-20T22:49:04.727Z,5.20
2022-11-20T22:51:34.043Z,8.67
2022-11-20T22:54:01.213Z,9.67
2022-11-20T22:56:27.891Z,5.90
2022-11-20T22:58:55.004Z,8.83
2022-11-20T23:01:29.647Z,7.67
2022-11-20T23:04:01.548Z,12.10
2022-11-20T23:06:29.355Z,8.43
2022-11-20T23:08:56.603Z,8.77
2022-11-20T23:11:29.187Z,6.77
2022-11-20T23:14:01.897Z,6.43
2022-11-20T23:16:30.035Z,12.30
2022-11-20T23:18:58.998Z,5.67
2022-11-20T23:21:26.295Z,11.27
2022-11-20T23:23:55.612Z,7.10
2022-11-20T23:26:25.038Z,7.23
2022-11-20T23:28:54.306Z,6.67
2022-11-20T23:31:21.592Z,8.50
2022-11-20T23:33:48.249Z,10.53
2022-11-20T23:36:15.423Z,6.57
2022-11-20T23:38:42.366Z,9.53
2022-11-20T23:41:09.388Z,7.27
2022-11-20T23:43:36.154Z,8.37
2022-11-20T23:46:04.123Z,8.10
2022-11-20T23:48:35.409Z,6.27
2022-11-20T23:51:03.043Z,4.77
2022-11-20T23:53:29.740Z,5.37
2022-11-20T23:55:58.839Z,5.40
2022-11-20T23:58:30.100Z,6.23
